Time;durP1;ratioP1;P1;durP2;ratioP2;P2;SDS_P1;SDS_P2;PMS_P1;PMS_P2;Temp;Humidity;BMP_temperature;BMP_pressure;BME280_temperature;BME280_humidity;BME280_pressure;Samples;Min_cycle;Max_cycle;Signal;HPM_P1;HPM_P2
2022/05/30 00:00:24;;;;;;;40.43;29.63;;;10.80;99.90;10.10;99890;;;;579738;241;35127;-81
2022/05/30 00:02:49;;;;;;;33.10;19.43;;;10.90;99.90;10.10;99892;;;;582989;241;25383;-81
2022/05/30 00:05:17;;;;;;;27.53;17.63;;;10.90;99.90;10.10;99890;;;;584837;241;25083;-80
2022/05/30 00:07:49;;;;;;;22.93;18.23;;;10.90;99.90;10.10;99881;;;;584814;241;24081;-81
2022/05/30 00:10:17;;;;;;;22.40;16.40;;;10.90;99.90;10.20;99888;;;;584382;241;24077;-81
2022/05/30 00:12:41;;;;;;;29.40;17.70;;;10.90;99.90;10.20;99874;;;;594446;241;24087;-80
2022/05/30 00:15:09;;;;;;;27.23;18.33;;;10.90;99.90;10.20;99873;;;;587190;241;24092;-80
2022/05/30 00:17:38;;;;;;;23.57;16.90;;;10.90;99.90;10.10;99866;;;;583208;241;24068;-81
2022/05/30 00:20:10;;;;;;;26.70;16.57;;;10.90;99.90;10.10;99866;;;;585012;241;25099;-81
2022/05/30 00:22:35;;;;;;;20.67;16.20;;;10.90;99.90;10.10;99869;;;;583526;241;24149;-83
2022/05/30 00:25:09;;;;;;;27.93;16.47;;;10.90;99.90;10.10;99882;;;;585299;239;24171;-81
2022/05/30 00:27:37;;;;;;;29.93;16.87;;;10.90;99.90;10.10;99877;;;;586317;241;24127;-81
2022/05/30 00:30:03;;;;;;;23.53;15.23;;;10.90;99.90;10.10;99881;;;;582985;241;24045;-82
2022/05/30 00:32:30;;;;;;;22.60;15.50;;;10.90;99.90;10.10;99889;;;;595345;241;24104;-85
2022/05/30 00:35:03;;;;;;;29.23;16.80;;;10.90;99.90;10.10;99881;;;;586483;241;24050;-83
2022/05/30 00:37:29;;;;;;;28.53;17.23;;;10.90;99.90;10.10;99886;;;;585649;241;24103;-84
2022/05/30 00:39:57;;;;;;;26.63;15.67;;;10.90;99.90;10.10;99888;;;;592848;241;24087;-83
2022/05/30 00:42:28;;;;;;;26.40;16.73;;;10.90;99.90;10.10;99887;;;;586535;241;24080;-81
2022/05/30 00:45:01;;;;;;;24.97;15.73;;;10.90;99.90;10.10;99881;;;;592930;241;24095;-81
2022/05/30 00:47:26;;;;;;;22.33;14.80;;;10.90;99.90;10.10;99884;;;;585497;241;24153;-81
2022/05/30 00:49:58;;;;;;;25.80;16.37;;;10.90;99.90;10.10;99871;;;;585206;241;24077;-80
2022/05/30 00:52:33;;;;;;;27.73;16.97;;;10.90;99.90;10.10;99875;;;;583435;241;24088;-81
2022/05/30 00:55:00;;;;;;;25.90;17.20;;;10.90;99.90;10.10;99877;;;;585645;241;24101;-81
2022/05/30 00:57:28;;;;;;;28.70;17.50;;;10.90;99.90;10.10;99877;;;;585310;241;24081;-80
2022/05/30 01:00:05;;;;;;;26.93;16.27;;;10.90;99.90;10.20;99877;;;;584194;241;24070;-82
2022/05/30 01:02:33;;;;;;;31.17;16.57;;;10.90;99.90;10.20;99879;;;;585902;241;24056;-81
2022/05/30 01:07:47;;;;;;;28.57;16.83;;;11.00;99.90;10.20;99878;;;;591123;241;24076;-80
2022/05/30 01:10:21;;;;;;;25.87;16.07;;;11.00;99.90;10.30;99880;;;;585382;241;24173;-81
2022/05/30 01:12:45;;;;;;;26.37;16.97;;;11.00;99.90;10.30;99880;;;;585664;241;24141;-80
2022/05/30 01:15:13;;;;;;;25.43;16.33;;;11.00;99.90;10.30;99875;;;;593941;241;24064;-81
2022/05/30 01:17:58;;;;;;;27.30;16.23;;;11.10;99.90;10.30;99878;;;;584235;241;24081;-80
2022/05/30 01:20:32;;;;;;;25.37;16.57;;;11.10;99.90;10.30;99877;;;;593781;241;24122;-83
2022/05/30 01:22:57;;;;;;;24.40;16.33;;;11.10;99.90;10.30;99875;;;;584741;241;24222;-83
2022/05/30 01:25:56;;;;;;;24.83;16.17;;;11.00;99.90;10.30;99870;;;;583187;241;24128;-81
2022/05/30 01:28:29;;;;;;;28.07;16.57;;;11.10;99.90;10.30;99876;;;;585002;241;24054;-83
2022/05/30 01:30:58;;;;;;;33.53;17.90;;;11.00;99.90;10.20;99864;;;;584412;241;24104;-83
2022/05/30 01:33:26;;;;;;;25.70;15.80;;;11.00;99.90;10.20;99866;;;;585544;241;25239;-80
2022/05/30 01:35:54;;;;;;;24.83;16.53;;;11.00;99.90;10.20;99862;;;;584758;241;24111;-80
2022/05/30 01:38:24;;;;;;;23.93;15.53;;;11.00;99.90;10.20;99868;;;;592178;241;24045;-79
2022/05/30 01:40:51;;;;;;;23.13;16.03;;;11.00;99.90;10.20;99869;;;;585202;241;24162;-80
2022/05/30 01:43:19;;;;;;;25.60;16.60;;;10.90;99.90;10.20;99870;;;;585181;241;24065;-80
2022/05/30 01:45:49;;;;;;;25.70;16.63;;;10.90;99.90;10.10;99862;;;;584952;241;24084;-81
2022/05/30 01:48:18;;;;;;;21.07;14.77;;;10.90;99.90;10.10;99873;;;;585124;241;24044;-81
2022/05/30 01:50:47;;;;;;;27.67;15.00;;;10.90;99.90;10.10;99868;;;;584812;241;24081;-80
2022/05/30 01:53:15;;;;;;;28.27;16.77;;;10.90;99.90;10.10;99864;;;;584726;241;24049;-81
2022/05/30 01:55:43;;;;;;;22.07;15.13;;;10.90;99.90;10.10;99862;;;;584695;241;24046;-81
2022/05/30 01:58:11;;;;;;;24.90;14.97;;;10.90;99.90;10.10;99861;;;;584364;241;24133;-81
2022/05/30 02:00:39;;;;;;;25.93;15.83;;;10.90;99.90;10.10;99864;;;;584695;241;24059;-81
2022/05/30 02:03:08;;;;;;;22.37;15.77;;;10.80;99.90;10.10;99857;;;;584736;241;24070;-81
2022/05/30 02:05:36;;;;;;;27.97;15.63;;;10.80;99.90;10.00;99859;;;;585087;241;24121;-80
2022/05/30 02:08:07;;;;;;;24.07;15.40;;;10.80;99.90;10.00;99847;;;;584658;241;24040;-80
2022/05/30 02:10:32;;;;;;;23.77;14.57;;;10.80;99.90;10.00;99855;;;;582836;241;24119;-81
2022/05/30 02:13:00;;;;;;;29.87;16.53;;;10.80;99.90;10.00;99852;;;;584424;240;24060;-80
2022/05/30 02:15:28;;;;;;;26.47;15.93;;;10.80;99.90;10.00;99858;;;;584530;241;24041;-81
2022/05/30 02:17:56;;;;;;;29.70;16.93;;;10.80;99.90;10.10;99853;;;;584559;241;24045;-80
2022/05/30 02:20:24;;;;;;;24.10;15.37;;;10.80;99.90;10.00;99852;;;;584533;241;24076;-80
2022/05/30 02:22:55;;;;;;;27.40;16.17;;;10.80;99.90;10.00;99858;;;;584682;241;24063;-80
2022/05/30 02:25:22;;;;;;;25.93;15.33;;;10.80;99.90;10.10;99858;;;;584859;241;24048;-80
2022/05/30 02:27:50;;;;;;;20.70;14.87;;;10.80;99.90;10.00;99855;;;;584896;241;24056;-81
2022/05/30 02:30:18;;;;;;;21.90;15.23;;;10.80;99.90;10.00;99851;;;;584783;241;24065;-79
2022/05/30 02:32:46;;;;;;;24.80;15.87;;;10.80;99.90;10.10;99852;;;;584317;241;24046;-80
2022/05/30 02:38:00;;;;;;;26.73;15.37;;;10.80;99.90;10.10;99857;;;;591593;241;24085;-80
2022/05/30 02:40:29;;;;;;;22.53;14.97;;;10.80;99.90;10.10;99845;;;;591641;241;24108;-83
2022/05/30 02:42:58;;;;;;;26.73;16.60;;;10.80;99.90;10.10;99845;;;;584344;241;24052;-80
2022/05/30 02:45:28;;;;;;;22.23;16.10;;;10.80;99.90;10.10;99842;;;;584394;241;24050;-80
2022/05/30 02:47:56;;;;;;;25.53;15.13;;;10.80;99.90;10.10;99842;;;;584436;241;24054;-80
2022/05/30 02:50:24;;;;;;;28.30;15.87;;;10.80;99.90;10.10;99842;;;;585656;241;24070;-79
2022/05/30 02:52:52;;;;;;;32.63;17.70;;;10.80;99.90;10.10;99842;;;;585647;241;24118;-81
2022/05/30 02:55:20;;;;;;;26.30;14.83;;;10.80;99.90;10.10;99845;;;;585755;241;24041;-80
2022/05/30 02:57:52;;;;;;;43.67;25.97;;;10.80;99.90;10.10;99844;;;;580647;241;35208;-80
2022/05/30 03:00:21;;;;;;;31.77;19.23;;;10.80;99.90;10.10;99841;;;;583687;241;24089;-80
2022/05/30 03:02:46;;;;;;;30.13;17.63;;;10.80;99.90;10.10;99834;;;;583481;241;24119;-80
2022/05/30 03:05:14;;;;;;;26.00;16.10;;;10.80;99.90;10.10;99833;;;;585046;241;24066;-79
2022/05/30 03:07:42;;;;;;;26.17;16.73;;;10.90;99.90;10.10;99844;;;;585064;241;24060;-79
2022/05/30 03:10:10;;;;;;;27.37;15.53;;;10.90;99.90;10.10;99844;;;;584995;241;24115;-79
2022/05/30 03:12:37;;;;;;;28.70;16.97;;;10.90;99.90;10.10;99842;;;;584892;241;24100;-79
2022/05/30 03:15:08;;;;;;;28.23;16.40;;;10.90;99.90;10.10;99838;;;;584877;241;24069;-79
2022/05/30 03:17:34;;;;;;;32.50;17.87;;;10.90;99.90;10.10;99838;;;;582654;241;24061;-80
2022/05/30 03:20:08;;;;;;;29.00;16.33;;;10.90;99.90;10.20;99841;;;;584488;241;24082;-80
2022/05/30 03:22:33;;;;;;;28.20;16.87;;;10.90;99.90;10.20;99838;;;;583009;241;24085;-80
2022/05/30 03:25:01;;;;;;;28.33;17.50;;;10.90;99.90;10.20;99844;;;;584469;241;24070;-80
2022/05/30 03:27:32;;;;;;;27.43;17.20;;;10.90;99.90;10.20;99842;;;;584590;241;24068;-81
2022/05/30 03:29:58;;;;;;;26.57;17.17;;;10.90;99.90;10.20;99848;;;;584047;241;24073;-82
2022/05/30 03:32:29;;;;;;;32.03;16.43;;;10.90;99.90;10.20;99838;;;;584676;241;24049;-82
2022/05/30 03:34:57;;;;;;;28.87;16.20;;;11.00;99.90;10.20;99842;;;;584554;241;24057;-80
2022/05/30 03:37:24;;;;;;;29.60;16.90;;;11.00;99.90;10.30;99843;;;;584434;241;24093;-82
2022/05/30 03:39:52;;;;;;;32.03;16.47;;;11.00;99.90;10.30;99837;;;;584375;241;24051;-82
2022/05/30 03:42:20;;;;;;;35.70;20.33;;;11.00;99.90;10.20;99839;;;;590450;241;24100;-82
2022/05/30 03:44:49;;;;;;;36.40;19.20;;;10.90;99.90;10.20;99837;;;;584297;241;24109;-82
2022/05/30 03:47:18;;;;;;;31.77;18.10;;;10.90;99.90;10.20;99837;;;;584022;241;24075;-82
2022/05/30 03:49:46;;;;;;;32.40;20.27;;;10.90;99.90;10.20;99833;;;;584252;241;24152;-83
2022/05/30 03:52:18;;;;;;;37.03;19.80;;;10.90;99.90;10.20;99828;;;;584630;241;24054;-82
2022/05/30 03:54:42;;;;;;;25.20;18.27;;;10.90;99.90;10.10;99824;;;;583632;241;24077;-82
2022/05/30 03:57:10;;;;;;;35.13;19.50;;;10.90;99.90;10.10;99825;;;;584159;241;24154;-81
2022/05/30 03:59:38;;;;;;;47.80;20.00;;;10.90;99.90;10.10;99823;;;;584093;241;24073;-82
2022/05/30 04:02:06;;;;;;;32.87;17.77;;;10.80;99.90;10.10;99813;;;;585800;241;24061;-82
2022/05/30 04:04:34;;;;;;;39.10;18.23;;;10.80;99.90;10.10;99811;;;;585315;241;24072;-82
2022/05/30 04:07:02;;;;;;;36.47;18.63;;;10.80;99.90;10.10;99819;;;;585050;241;24115;-81
2022/05/30 04:09:31;;;;;;;28.00;17.30;;;10.80;99.90;10.10;99820;;;;584922;241;24122;-82
2022/05/30 04:11:59;;;;;;;30.33;18.40;;;10.80;99.90;10.10;99826;;;;584538;241;24115;-83
2022/05/30 04:14:28;;;;;;;36.23;20.63;;;10.90;99.90;10.20;99834;;;;584895;241;24101;-83
2022/05/30 04:16:57;;;;;;;57.08;32.05;;;10.90;99.90;10.20;99835;;;;580077;241;35204;-82
2022/05/30 04:19:25;;;;;;;45.07;21.60;;;11.00;99.90;10.30;99838;;;;584866;241;24082;-81
2022/05/30 04:21:53;;;;;;;30.00;17.50;;;10.90;99.90;10.30;99828;;;;585008;241;24054;-81
2022/05/30 04:24:21;;;;;;;31.17;16.60;;;11.00;99.90;10.30;99829;;;;585191;241;24114;-82
2022/05/30 04:26:49;;;;;;;24.80;13.63;;;11.00;99.90;10.40;99834;;;;585423;241;24048;-80
2022/05/30 04:29:17;;;;;;;18.43;10.27;;;11.00;99.90;10.40;99835;;;;585560;241;24072;-80
2022/05/30 04:31:45;;;;;;;16.17;11.30;;;11.10;99.90;10.30;99841;;;;585384;241;24062;-82
2022/05/30 04:34:13;;;;;;;19.90;12.27;;;11.00;99.90;10.30;99855;;;;585238;241;24092;-81
2022/05/30 04:36:41;;;;;;;24.13;13.60;;;11.00;99.90;10.30;99856;;;;585945;241;24138;-79
2022/05/30 04:39:09;;;;;;;24.40;13.47;;;11.00;99.90;10.30;99852;;;;586006;241;24047;-79
2022/05/30 04:41:36;;;;;;;24.13;13.63;;;11.00;99.90;10.30;99845;;;;585582;241;24055;-80
2022/05/30 04:44:05;;;;;;;28.13;13.13;;;11.00;99.90;10.20;99851;;;;591277;241;24062;-81
2022/05/30 04:46:36;;;;;;;22.00;13.23;;;10.90;99.90;10.20;99847;;;;585102;241;24179;-82
2022/05/30 04:49:02;;;;;;;21.67;14.43;;;10.80;99.90;10.10;99847;;;;584434;241;24079;-84
2022/05/30 04:51:30;;;;;;;22.97;13.47;;;10.80;99.90;10.10;99843;;;;585499;241;24078;-84
2022/05/30 04:53:58;;;;;;;20.20;14.33;;;10.80;99.90;10.10;99839;;;;584987;241;24075;-84
2022/05/30 04:56:26;;;;;;;21.50;13.93;;;10.80;99.90;10.10;99845;;;;584808;241;24042;-84
2022/05/30 04:58:53;;;;;;;22.07;13.23;;;10.80;99.90;10.00;99844;;;;584616;241;24060;-84
2022/05/30 05:01:22;;;;;;;23.83;12.50;;;10.80;99.90;10.00;99838;;;;584585;241;24074;-83
2022/05/30 05:03:49;;;;;;;22.43;12.50;;;10.70;99.90;10.00;99834;;;;584771;241;24083;-83
2022/05/30 05:06:17;;;;;;;26.27;13.13;;;10.70;99.90;10.00;99825;;;;584694;241;24052;-82
2022/05/30 05:08:48;;;;;;;21.77;13.90;;;10.70;99.90;10.00;99829;;;;583187;241;25112;-81
2022/05/30 05:11:22;;;;;;;22.47;13.37;;;10.70;99.90;10.10;99835;;;;583664;239;24078;-85
2022/05/30 05:13:50;;;;;;;17.93;12.20;;;10.80;99.90;10.20;99836;;;;586754;241;24117;-86
2022/05/30 05:16:20;;;;;;;27.90;14.03;;;10.90;99.90;10.20;99833;;;;594906;241;24074;-86
2022/05/30 05:18:45;;;;;;;22.47;13.77;;;10.90;99.90;10.30;99837;;;;584106;241;24092;-84
2022/05/30 05:21:20;;;;;;;20.67;14.17;;;11.00;99.90;10.40;99832;;;;585843;241;24098;-83
2022/05/30 05:23:47;;;;;;;20.93;13.10;;;11.00;99.90;10.40;99827;;;;585109;241;24081;-83
2022/05/30 05:26:13;;;;;;;25.53;16.00;;;11.10;99.90;10.50;99835;;;;585775;241;26210;-86
2022/05/30 05:28:41;;;;;;;24.53;14.27;;;11.10;99.90;10.50;99837;;;;585418;241;24106;-81
2022/05/30 05:31:09;;;;;;;22.47;15.30;;;11.20;99.90;10.50;99834;;;;585164;241;24058;-81
2022/05/30 05:33:37;;;;;;;24.97;13.67;;;11.20;99.90;10.60;99841;;;;583670;241;24062;-86
2022/05/30 05:36:08;;;;;;;26.03;14.87;;;11.30;99.90;10.70;99842;;;;585662;241;24083;-82
2022/05/30 05:38:34;;;;;;;22.00;14.70;;;11.30;99.90;10.70;99847;;;;583790;241;24147;-82
2022/05/30 05:41:02;;;;;;;21.23;14.40;;;11.40;99.90;10.80;99833;;;;585878;241;24053;-83
2022/05/30 05:43:30;;;;;;;25.50;14.20;;;11.50;99.90;10.80;99836;;;;584525;241;24043;-83
2022/05/30 05:45:57;;;;;;;26.63;14.97;;;11.50;99.90;10.80;99835;;;;590750;241;24103;-82
2022/05/30 05:48:26;;;;;;;22.97;14.00;;;11.50;99.90;10.90;99837;;;;584649;241;24056;-86
2022/05/30 05:50:54;;;;;;;21.67;14.60;;;11.50;99.90;10.90;99830;;;;584690;241;24075;-86
2022/05/30 05:53:22;;;;;;;28.97;14.77;;;11.50;99.90;10.90;99830;;;;584959;241;24053;-83
2022/05/30 05:55:50;;;;;;;22.90;14.57;;;11.50;99.90;10.90;99837;;;;584558;241;24053;-80
2022/05/30 05:58:18;;;;;;;19.53;13.60;;;11.60;99.90;10.90;99835;;;;584172;241;24088;-79
2022/05/30 06:00:46;;;;;;;23.03;13.30;;;11.60;99.90;10.90;99835;;;;584387;241;24076;-83
2022/05/30 06:03:14;;;;;;;16.03;11.23;;;11.60;99.90;11.00;99842;;;;584190;241;24097;-85
2022/05/30 06:05:45;;;;;;;16.80;12.47;;;11.60;99.90;11.00;99837;;;;584523;241;24113;-83
2022/05/30 06:08:11;;;;;;;17.90;12.93;;;11.60;99.90;11.00;99839;;;;584007;241;24062;-81
2022/05/30 06:11:05;;;;;;;23.80;14.50;;;11.70;99.90;11.10;99828;;;;584623;241;24052;-83
2022/05/30 06:13:05;;;;;;;22.43;14.10;;;11.70;99.90;11.10;99838;;;;584168;241;24051;-83
2022/05/30 06:15:33;;;;;;;21.60;13.00;;;11.70;99.90;11.20;99841;;;;584715;241;24112;-82
2022/05/30 06:18:02;;;;;;;21.27;13.87;;;11.80;99.90;11.20;99837;;;;584784;241;24067;-83
2022/05/30 06:20:33;;;;;;;21.60;14.83;;;11.90;99.90;11.40;99841;;;;584581;241;24048;-81
2022/05/30 06:22:57;;;;;;;32.70;18.27;;;12.00;99.90;11.50;99841;;;;584386;239;24042;-81
2022/05/30 06:25:25;;;;;;;38.93;19.10;;;12.10;99.90;11.70;99841;;;;586485;241;24025;-82
2022/05/30 06:27:53;;;;;;;32.80;18.73;;;12.30;99.90;11.90;99844;;;;585909;241;24054;-82
2022/05/30 06:30:21;;;;;;;32.53;21.47;;;12.50;99.90;12.00;99852;;;;585709;241;24069;-82
2022/05/30 06:32:49;;;;;;;35.47;22.63;;;12.60;99.90;12.30;99854;;;;585895;241;24029;-86
2022/05/30 06:35:17;;;;;;;33.10;21.40;;;12.90;99.90;12.40;99851;;;;586234;241;24058;-87
2022/05/30 06:37:45;;;;;;;33.43;21.87;;;13.10;99.90;12.70;99856;;;;586621;241;24178;-84
2022/05/30 06:40:15;;;;;;;37.70;23.30;;;13.30;99.90;12.80;99863;;;;586541;241;24083;-82
2022/05/30 06:42:42;;;;;;;39.73;23.70;;;13.40;99.90;12.90;99859;;;;586383;241;24084;-81
2022/05/30 06:45:14;;;;;;;35.33;23.60;;;13.50;99.90;12.90;99854;;;;586142;241;24052;-81
2022/05/30 06:47:40;;;;;;;33.90;23.07;;;13.60;99.90;13.00;99859;;;;588692;241;24039;-80
2022/05/30 06:50:09;;;;;;;46.67;34.00;;;13.70;99.90;13.20;99860;;;;580701;241;35231;-79
2022/05/30 06:52:38;;;;;;;39.63;25.10;;;13.80;99.90;13.20;99851;;;;584499;241;24037;-81
2022/05/30 06:55:11;;;;;;;37.47;23.03;;;13.90;99.90;13.40;99850;;;;585732;241;24122;-80
2022/05/30 07:00:15;;;;;;;31.27;22.47;;;14.30;99.90;13.70;99842;;;;558952;255;24159;-83
2022/05/30 07:02:42;;;;;;;27.23;21.13;;;14.60;99.90;13.80;99847;;;;584048;241;24063;-81
2022/05/30 07:05:13;;;;;;;28.50;20.33;;;14.60;99.90;13.90;99836;;;;584700;241;24071;-80
2022/05/30 07:07:40;;;;;;;22.37;17.80;;;14.70;99.90;14.20;99835;;;;584285;241;24057;-81
2022/05/30 07:10:08;;;;;;;26.10;19.37;;;15.00;99.90;14.50;99843;;;;583620;241;24116;-81
2022/05/30 07:12:37;;;;;;;23.43;19.07;;;15.20;99.90;14.60;99831;;;;583399;241;24083;-81
2022/05/30 07:15:06;;;;;;;25.30;18.77;;;15.70;99.90;14.80;99838;;;;584604;241;24116;-82
2022/05/30 07:17:37;;;;;;;21.73;18.07;;;15.60;99.90;15.00;99835;;;;584268;241;24096;-82
2022/05/30 07:20:02;;;;;;;22.43;16.87;;;15.90;99.90;15.30;99839;;;;594662;239;24037;-81
2022/05/30 07:22:30;;;;;;;17.00;15.20;;;16.10;99.90;15.30;99838;;;;584990;241;24060;-83
2022/05/30 07:24:58;;;;;;;17.80;14.63;;;16.20;99.90;15.50;99848;;;;585131;241;24045;-81
2022/05/30 07:27:29;;;;;;;16.67;14.97;;;16.30;99.90;15.60;99842;;;;585247;241;24087;-82
2022/05/30 07:29:54;;;;;;;15.93;14.33;;;16.50;99.90;15.80;99844;;;;584733;241;24053;-82
2022/05/30 07:32:22;;;;;;;14.23;12.73;;;16.70;99.90;16.00;99836;;;;584798;241;24050;-81
2022/05/30 07:34:51;;;;;;;13.90;12.60;;;16.90;99.90;16.20;99840;;;;585057;240;24046;-81
2022/05/30 07:37:18;;;;;;;17.13;13.77;;;17.00;99.90;16.30;99842;;;;585863;241;24069;-81
2022/05/30 07:39:47;;;;;;;15.13;13.53;;;17.20;99.90;16.40;99839;;;;585658;241;24054;-80
2022/05/30 07:42:15;;;;;;;15.47;12.97;;;17.20;99.90;16.50;99849;;;;585648;241;24075;-80
2022/05/30 07:44:45;;;;;;;15.80;14.30;;;17.30;99.90;16.60;99843;;;;585655;241;24044;-82
2022/05/30 07:47:16;;;;;;;13.07;11.87;;;17.40;99.90;16.70;99844;;;;585961;241;24057;-82
2022/05/30 07:49:41;;;;;;;13.30;12.07;;;17.40;99.90;16.60;99845;;;;585890;241;24076;-82
2022/05/30 07:52:13;;;;;;;13.30;12.20;;;17.50;99.90;16.60;99848;;;;586263;241;24072;-82
2022/05/30 07:54:42;;;;;;;14.50;13.13;;;17.40;99.90;16.70;99851;;;;584975;241;24045;-85
2022/05/30 07:57:06;;;;;;;15.23;13.80;;;17.50;99.90;17.00;99843;;;;587345;241;24079;-82
2022/05/30 07:59:37;;;;;;;17.40;15.67;;;17.70;99.90;17.20;99845;;;;584286;241;24053;-83
2022/05/30 08:02:05;;;;;;;16.50;14.87;;;17.90;99.90;17.50;99843;;;;585615;241;24058;-84
2022/05/30 08:04:33;;;;;;;14.13;12.70;;;18.20;99.90;17.80;99849;;;;585628;241;24153;-84
2022/05/30 08:07:01;;;;;;;13.60;12.40;;;18.40;99.90;18.00;99852;;;;584220;241;24055;-85
2022/05/30 08:09:28;;;;;;;12.37;11.17;;;18.60;99.90;18.20;99853;;;;585646;241;24079;-83
2022/05/30 08:11:56;;;;;;;11.00;9.90;;;18.80;99.90;18.50;99854;;;;584933;241;24062;-83
2022/05/30 08:14:25;;;;;;;12.50;11.30;;;19.10;99.90;18.70;99850;;;;594286;241;24042;-81
2022/05/30 08:16:53;;;;;;;12.17;10.93;;;19.40;99.90;18.70;99855;;;;585439;241;23074;-83
2022/05/30 08:19:23;;;;;;;12.67;11.57;;;19.50;99.90;18.90;99857;;;;584765;241;23094;-80
2022/05/30 08:21:51;;;;;;;13.23;11.93;;;19.60;99.90;18.90;99854;;;;584593;241;24055;-82
2022/05/30 08:24:20;;;;;;;13.97;11.13;;;19.60;99.90;18.60;99861;;;;584249;241;23067;-81
2022/05/30 08:26:48;;;;;;;12.93;10.90;;;19.50;99.90;18.60;99855;;;;584655;241;24137;-82
2022/05/30 08:29:16;;;;;;;12.77;11.43;;;19.50;99.90;18.20;99864;;;;584269;241;24090;-82
2022/05/30 08:31:43;;;;;;;11.43;10.40;;;19.50;99.90;18.00;99870;;;;584482;241;24037;-81
2022/05/30 08:34:11;;;;;;;9.57;8.87;;;19.40;99.90;18.00;99863;;;;584446;241;24049;-81
2022/05/30 08:36:40;;;;;;;12.10;10.87;;;19.30;99.90;17.90;99862;;;;563211;251;24198;-81
2022/05/30 08:41:57;;;;;;;18.17;16.03;;;18.90;99.90;17.20;99861;;;;591097;241;24089;-81
2022/05/30 08:44:22;;;;;;;20.33;13.83;;;18.50;99.90;16.80;99851;;;;584162;241;24080;-82
2022/05/30 08:47:05;;;;;;;15.30;13.00;;;18.00;99.90;16.50;99856;;;;585524;241;24061;-82
2022/05/30 08:49:35;;;;;;;12.33;9.83;;;17.60;99.90;16.10;99857;;;;585801;241;24065;-84
2022/05/30 08:52:16;;;;;;;11.07;9.90;;;17.30;99.90;16.20;99855;;;;585755;241;24105;-84
2022/05/30 08:54:43;;;;;;;11.37;10.23;;;17.20;99.90;16.30;99848;;;;585516;241;24075;-84
2022/05/30 08:57:33;;;;;;;18.13;9.97;;;17.20;99.90;16.50;99851;;;;583343;241;24053;-83
2022/05/30 09:00:15;;;;;;;10.37;9.20;;;17.40;99.90;16.90;99845;;;;594260;237;24060;-83
2022/05/30 09:02:55;;;;;;;11.03;8.97;;;17.70;99.90;17.20;99843;;;;585246;241;24147;-83
2022/05/30 09:05:41;;;;;;;11.37;9.87;;;17.90;99.90;17.30;99842;;;;594587;241;24060;-83
2022/05/30 09:08:09;;;;;;;10.47;8.70;;;18.00;99.90;17.30;99838;;;;592303;241;24059;-84
2022/05/30 09:10:55;;;;;;;8.93;8.03;;;18.10;99.90;17.20;99827;;;;593986;241;24070;-82
2022/05/30 09:13:29;;;;;;;9.83;7.93;;;18.10;99.90;17.20;99826;;;;593066;241;24068;-82
2022/05/30 09:16:12;;;;;;;8.17;7.43;;;18.00;99.90;17.30;99824;;;;593952;238;24076;-83
2022/05/30 09:18:44;;;;;;;7.63;6.87;;;18.10;99.90;17.60;99820;;;;585447;241;24070;-81
2022/05/30 09:21:14;;;;;;;7.30;5.80;;;18.30;99.90;17.90;99818;;;;593459;238;24057;-81
2022/05/30 09:23:41;;;;;;;7.60;5.87;;;18.60;99.90;18.30;99826;;;;594253;238;24101;-82
2022/05/30 09:26:11;;;;;;;6.07;5.47;;;18.90;99.90;18.50;99820;;;;594123;241;24065;-86
2022/05/30 09:28:40;;;;;;;8.73;5.50;;;19.20;99.90;18.90;99813;;;;573294;247;24139;-84
2022/05/30 09:31:16;;;;;;;8.03;5.10;;;19.50;99.90;19.30;99820;;;;585367;241;24064;-84
2022/05/30 09:33:44;;;;;;;5.27;4.70;;;19.90;99.90;19.60;99819;;;;585864;241;24034;-81
2022/05/30 09:36:46;;;;;;;6.53;5.37;;;20.30;99.90;20.10;99809;;;;594228;238;24065;-83
2022/05/30 09:39:20;;;;;;;4.63;4.23;;;20.70;99.90;20.60;99817;;;;593604;241;24043;-83
2022/05/30 09:41:46;;;;;;;5.50;5.00;;;21.30;99.90;22.00;99813;;;;593830;237;23074;-84
2022/05/30 09:44:25;;;;;;;4.50;4.20;;;22.50;99.90;23.90;99811;;;;593559;238;24075;-84
2022/05/30 09:47:05;;;;;;;5.07;4.63;;;24.30;99.90;26.40;99818;;;;593331;241;24103;-85
2022/05/30 09:49:39;;;;;;;3.90;3.60;;;29.80;83.90;29.20;99821;;;;593757;238;24052;-85
2022/05/30 09:52:26;;;;;;;4.43;4.03;;;29.70;83.60;30.00;99826;;;;584767;241;23076;-83
2022/05/30 09:55:01;;;;;;;5.12;3.95;;;31.30;74.20;29.30;99819;;;;584787;241;23100;-83
2022/05/30 09:57:35;;;;;;;3.85;3.65;;;31.10;65.60;27.80;99811;;;;594039;241;23098;-81
2022/05/30 10:00:12;;;;;;;5.75;4.20;;;30.00;60.80;26.90;99813;;;;595266;237;23071;-84
2022/05/30 10:02:43;;;;;;;4.07;3.78;;;28.90;65.10;26.30;99813;;;;594654;237;23165;-83
2022/05/30 10:05:29;;;;;;;6.00;4.20;;;28.00;64.80;25.30;99805;;;;585687;241;23074;-84
2022/05/30 10:08:00;;;;;;;4.70;4.10;;;27.00;64.70;24.30;99800;;;;594586;241;23062;-83
2022/05/30 10:10:30;;;;;;;4.80;4.47;;;26.00;69.70;23.60;99801;;;;585053;241;23114;-82
2022/05/30 10:12:59;;;;;;;5.27;4.00;;;24.40;77.50;23.10;99805;;;;594222;241;23066;-81
2022/05/30 10:15:39;;;;;;;9.10;4.40;;;24.30;76.90;22.80;99799;;;;584671;241;24170;-81
2022/05/30 10:18:19;;;;;;;4.00;3.70;;;23.90;78.00;22.20;99807;;;;593694;241;24109;-80
2022/05/30 10:21:14;;;;;;;4.73;4.23;;;23.30;79.20;21.70;99803;;;;593364;241;23081;-80
2022/05/30 10:29:56;;;;;;;4.70;4.30;;;22.00;88.80;20.90;99821;;;;584299;241;24101;-82
2022/05/30 10:32:30;;;;;;;4.20;3.80;;;21.70;89.10;20.70;99806;;;;592853;238;24049;-82
2022/05/30 10:35:29;;;;;;;5.10;4.60;;;21.30;91.80;20.50;99808;;;;592793;238;23078;-83
2022/05/30 10:38:21;;;;;;;5.27;3.90;;;21.30;91.70;20.40;99810;;;;593116;241;23085;-81
2022/05/30 10:40:52;;;;;;;3.67;3.43;;;20.90;91.20;20.10;99806;;;;591935;241;24128;-81
2022/05/30 10:43:24;;;;;;;3.60;3.03;;;20.90;91.20;19.90;99803;;;;583615;241;23110;-81
2022/05/30 10:46:00;;;;;;;3.33;3.00;;;20.70;91.90;19.70;99819;;;;584351;241;24082;-81
2022/05/30 10:48:46;;;;;;;3.03;2.83;;;20.40;92.80;19.60;99810;;;;593236;238;24042;-81
2022/05/30 10:51:22;;;;;;;3.87;2.90;;;20.10;94.20;19.30;99810;;;;593529;237;24072;-82
2022/05/30 10:54:20;;;;;;;4.70;2.97;;;20.00;94.10;19.30;99808;;;;583814;241;23081;-82
2022/05/30 10:56:51;;;;;;;3.60;3.30;;;19.90;94.80;19.10;99806;;;;584485;241;24156;-81
2022/05/30 10:59:42;;;;;;;2.80;2.60;;;19.80;95.40;19.00;99804;;;;584503;241;24095;-82
2022/05/30 11:02:29;;;;;;;2.70;2.50;;;19.70;93.60;19.00;99812;;;;593987;239;24096;-82
2022/05/30 11:05:08;;;;;;;3.40;3.20;;;19.70;94.20;19.00;99802;;;;593887;241;24051;-82
2022/05/30 11:07:51;;;;;;;3.67;3.37;;;19.70;93.90;19.20;99812;;;;593645;238;24059;-80
2022/05/30 11:10:34;;;;;;;7.03;3.03;;;19.90;93.80;19.30;99807;;;;585369;241;23161;-80
2022/05/30 11:13:14;;;;;;;4.20;2.67;;;20.00;94.20;19.50;99813;;;;595043;241;24038;-82
2022/05/30 11:15:47;;;;;;;3.10;2.90;;;20.30;95.00;19.60;99821;;;;593324;241;24084;-78
2022/05/30 11:18:30;;;;;;;3.23;3.03;;;20.30;97.00;19.80;99805;;;;593044;241;24072;-81
2022/05/30 11:21:20;;;;;;;3.72;3.42;;;20.50;96.40;19.90;99797;;;;587716;238;35163;-81
2022/05/30 11:23:47;;;;;;;4.60;3.30;;;20.60;95.50;19.70;99813;;;;592665;241;24104;-80
2022/05/30 11:26:45;;;;;;;2.80;2.60;;;20.60;96.10;19.50;99819;;;;585781;241;24060;-79
2022/05/30 11:29:22;;;;;;;2.57;2.37;;;20.40;94.80;19.10;99804;;;;593643;237;23150;-79
2022/05/30 11:31:59;;;;;;;3.60;2.87;;;20.00;95.70;18.70;99795;;;;584825;241;24065;-79
2022/05/30 11:34:51;;;;;;;2.80;2.67;;;19.60;95.60;18.30;99799;;;;593075;238;24114;-80
2022/05/30 11:37:53;;;;;;;3.23;3.00;;;19.20;98.30;18.00;99793;;;;593320;241;24163;-78